Time;durP1;ratioP1;P1;durP2;ratioP2;P2;SDS_P1;SDS_P2;PMS_P1;PMS_P2;Temp;Humidity;BMP_temperature;BMP_pressure;BME280_temperature;BME280_humidity;BME280_pressure;Samples;Min_cycle;Max_cycle;Signal;HPM_P1;HPM_P2
2022/03/08 00:00:00;;;;;;;30.00;17.87;;;;;;;3.73;89.24;100975.97;5033616;28;20206;-76
2022/03/08 00:02:26;;;;;;;30.13;17.67;;;;;;;3.67;89.66;100962.53;5033177;28;20666;-75
2022/03/08 00:04:51;;;;;;;29.10;16.97;;;;;;;3.76;89.19;100981.41;5033441;28;20281;-75
2022/03/08 00:07:17;;;;;;;28.67;17.03;;;;;;;3.66;88.48;100971.75;5033502;28;20176;-74
2022/03/08 00:09:45;;;;;;;31.07;16.83;;;;;;;3.73;88.66;100981.03;5032932;28;20261;-76
2022/03/08 00:12:11;;;;;;;30.23;16.73;;;;;;;3.61;89.81;100959.25;5033185;28;20200;-76
2022/03/08 00:14:37;;;;;;;29.13;17.50;;;;;;;3.72;88.45;100978.31;5032955;28;20203;-74
2022/03/08 00:17:03;;;;;;;34.53;20.33;;;;;;;3.66;88.64;100965.78;5032746;28;20175;-76
2022/03/08 00:19:29;;;;;;;37.37;20.10;;;;;;;3.62;89.54;100969.59;5032620;28;20200;-75
2022/03/08 00:21:55;;;;;;;38.03;20.83;;;;;;;3.65;89.92;100967.44;5032913;28;20182;-76
2022/03/08 00:24:20;;;;;;;40.40;22.00;;;;;;;3.67;90.39;100970.13;5032933;28;20199;-74
2022/03/08 00:27:07;;;;;;;43.23;23.47;;;;;;;3.66;90.37;100966.69;5032917;28;20659;-74
2022/03/08 00:29:33;;;;;;;33.07;20.00;;;;;;;3.69;90.44;100966.16;5032575;28;20183;-75
2022/03/08 00:31:58;;;;;;;35.70;19.20;;;;;;;3.70;90.20;100961.28;5032472;28;20196;-75
2022/03/08 00:34:24;;;;;;;35.13;18.73;;;;;;;3.73;89.88;100968.34;5032494;28;20172;-74
2022/03/08 00:36:49;;;;;;;31.97;18.47;;;;;;;3.56;89.94;100932.47;5032684;28;20211;-76
2022/03/08 00:39:15;;;;;;;41.53;22.60;;;;;;;3.71;90.12;100964.75;5032476;28;20263;-74
2022/03/08 00:41:40;;;;;;;45.03;22.43;;;;;;;3.71;90.07;100959.69;5032292;28;20251;-75
2022/03/08 00:44:06;;;;;;;44.80;23.37;;;;;;;3.70;90.42;100961.28;5032132;28;20254;-74
2022/03/08 00:46:32;;;;;;;45.67;23.77;;;;;;;3.72;90.15;100961.47;5031534;28;20250;-75
2022/03/08 00:48:58;;;;;;;46.27;23.47;;;;;;;3.69;90.50;100954.41;5032830;28;20199;-75
2022/03/08 00:51:24;;;;;;;40.30;21.50;;;;;;;3.72;90.73;100953.88;5032582;28;20176;-75
2022/03/08 00:53:50;;;;;;;43.23;23.50;;;;;;;3.72;90.65;100948.81;5032394;28;20669;-74
2022/03/08 00:56:16;;;;;;;38.27;20.70;;;;;;;3.75;90.32;100953.34;5032109;28;20180;-75
2022/03/08 00:58:41;;;;;;;37.97;20.70;;;;;;;3.74;89.84;100949.91;5032115;28;20164;-74
2022/03/08 01:01:08;;;;;;;38.37;22.07;;;;;;;3.76;90.09;100948.44;5031660;28;20196;-74
2022/03/08 01:03:34;;;;;;;38.73;19.70;;;;;;;3.68;88.90;100931.44;5031543;28;20191;-74
2022/03/08 01:05:59;;;;;;;29.73;17.27;;;;;;;3.81;88.18;100951.56;5031900;28;20181;-75
2022/03/08 01:08:25;;;;;;;27.70;15.50;;;;;;;3.81;87.67;100946.50;5031916;28;20172;-74
2022/03/08 01:10:51;;;;;;;30.40;16.43;;;;;;;3.82;88.15;100945.75;5031835;28;20175;-76
2022/03/08 01:13:17;;;;;;;28.70;15.00;;;;;;;3.81;87.98;100947.41;5031730;28;20656;-74
2022/03/08 01:15:42;;;;;;;32.63;15.80;;;;;;;3.75;87.35;100928.91;5031652;28;20218;-75
2022/03/08 01:18:08;;;;;;;25.60;15.30;;;;;;;3.86;87.25;100946.34;5031901;28;20179;-75
2022/03/08 01:20:33;;;;;;;28.60;15.43;;;;;;;3.82;87.18;100933.09;5031777;28;20322;-74
2022/03/08 01:22:59;;;;;;;28.17;15.50;;;;;;;3.69;87.51;100918.91;5031558;28;20183;-75
2022/03/08 01:25:24;;;;;;;26.60;14.50;;;;;;;3.81;87.99;100941.41;5031889;28;20182;-76
2022/03/08 01:27:51;;;;;;;26.73;15.17;;;;;;;3.56;88.36;100897.88;5030599;28;20611;-74
2022/03/08 01:30:20;;;;;;;29.30;15.43;;;;;;;3.78;88.52;100944.47;5030174;28;20775;-75
2022/03/08 01:32:46;;;;;;;26.90;15.23;;;;;;;3.84;88.41;100944.34;5031729;28;20191;-76
2022/03/08 01:35:12;;;;;;;27.27;15.40;;;;;;;3.89;86.92;100945.78;5031485;28;20555;-75
2022/03/08 01:37:38;;;;;;;26.13;13.97;;;;;;;3.85;87.47;100936.00;5031351;28;20268;-75
2022/03/08 01:40:06;;;;;;;27.00;15.07;;;;;;;3.89;87.76;100954.31;5031604;28;20678;-76
2022/03/08 01:42:32;;;;;;;26.33;15.17;;;;;;;3.89;87.23;100949.25;5031180;28;20176;-75
2022/03/08 01:44:58;;;;;;;27.03;15.10;;;;;;;3.78;88.00;100918.25;5033211;28;20164;-75
2022/03/08 01:47:25;;;;;;;24.30;14.43;;;;;;;3.92;86.27;100949.63;5032359;28;20219;-75
2022/03/08 01:49:52;;;;;;;21.27;12.53;;;;;;;3.92;85.89;100942.00;5031776;28;20255;-75
2022/03/08 01:52:21;;;;;;;23.77;13.07;;;;;;;3.86;85.44;100927.66;5031365;28;20180;-74
2022/03/08 01:54:47;;;;;;;18.87;12.13;;;;;;;3.93;84.52;100941.28;5031281;28;20178;-74
2022/03/08 01:57:14;;;;;;;23.47;13.00;;;;;;;3.80;84.89;100921.84;5035171;28;20279;-75
2022/03/08 01:59:40;;;;;;;21.70;13.53;;;;;;;3.84;84.40;100931.66;5031601;28;20204;-75
2022/03/08 02:02:06;;;;;;;26.43;15.90;;;;;;;3.81;84.99;100933.81;5031438;28;20184;-75
2022/03/08 02:04:32;;;;;;;26.37;15.37;;;;;;;3.78;85.38;100928.38;5031038;28;20176;-75
2022/03/08 02:06:57;;;;;;;25.77;15.67;;;;;;;3.77;85.36;100935.09;5031283;28;20271;-74
2022/03/08 02:09:23;;;;;;;25.97;14.50;;;;;;;3.72;85.76;100928.53;5031339;28;20200;-75
2022/03/08 02:11:49;;;;;;;25.40;13.50;;;;;;;3.79;86.62;100948.81;5030955;28;20659;-75
2022/03/08 02:14:18;;;;;;;25.93;14.57;;;;;;;3.82;86.43;100949.19;5032695;28;20238;-76
2022/03/08 02:16:45;;;;;;;24.97;13.87;;;;;;;3.81;87.03;100942.31;5035350;28;20186;-75
2022/03/08 02:19:15;;;;;;;23.53;13.50;;;;;;;3.76;86.68;100943.38;5035221;28;20183;-75
2022/03/08 02:21:44;;;;;;;22.10;13.20;;;;;;;3.65;85.65;100921.81;5035139;28;20263;-76
2022/03/08 02:24:10;;;;;;;20.70;12.63;;;;;;;3.72;86.46;100937.78;5035249;28;20172;-75
2022/03/08 02:26:36;;;;;;;24.23;14.67;;;;;;;3.79;85.97;100953.88;5035352;28;20254;-76
2022/03/08 02:29:04;;;;;;;24.17;14.20;;;;;;;3.74;87.21;100943.91;5035108;28;20191;-76
2022/03/08 02:31:30;;;;;;;21.80;13.37;;;;;;;3.67;87.96;100930.50;5035469;28;20211;-75
2022/03/08 02:37:19;;;;;;;26.40;15.00;;;;;;;3.82;88.04;100953.38;5034418;28;20183;-74
2022/03/08 02:39:45;;;;;;;29.23;16.60;;;;;;;3.81;88.56;100949.94;5035214;28;20261;-75
2022/03/08 02:42:10;;;;;;;27.97;15.97;;;;;;;3.84;88.62;100942.69;5035355;28;20168;-75
2022/03/08 02:44:36;;;;;;;25.83;14.97;;;;;;;3.83;88.24;100948.50;5035604;28;20699;-75
2022/03/08 02:47:03;;;;;;;29.17;16.13;;;;;;;3.75;87.99;100922.94;5035344;28;20168;-75
2022/03/08 02:49:30;;;;;;;31.07;17.87;;;;;;;3.84;88.63;100945.22;5034999;28;20769;-76
2022/03/08 02:51:56;;;;;;;31.37;18.73;;;;;;;3.85;87.49;100947.03;5035760;28;20176;-75
2022/03/08 02:54:22;;;;;;;33.03;19.77;;;;;;;3.83;87.86;100928.22;5036785;28;20191;-74
2022/03/08 02:56:48;;;;;;;34.07;19.13;;;;;;;3.86;87.45;100941.28;5037797;28;20179;-77
2022/03/08 02:59:24;;;;;;;33.83;18.90;;;;;;;3.86;87.69;100940.34;5041208;28;20189;-76
2022/03/08 03:01:50;;;;;;;31.27;17.50;;;;;;;3.87;87.29;100942.16;5045783;28;20222;-75
2022/03/08 03:04:15;;;;;;;29.77;17.07;;;;;;;3.87;87.24;100947.25;5049417;28;20651;-75
2022/03/08 03:06:43;;;;;;;29.33;17.63;;;;;;;3.80;87.52;100930.38;5049085;28;20164;-75
2022/03/08 03:09:08;;;;;;;33.10;18.63;;;;;;;3.76;87.34;100932.34;5051338;28;20176;-76
2022/03/08 03:11:34;;;;;;;30.93;17.23;;;;;;;3.81;88.02;100943.97;5052119;28;20206;-75
2022/03/08 03:13:59;;;;;;;29.83;16.70;;;;;;;3.75;87.62;100935.59;5050855;28;20279;-74
2022/03/08 03:16:26;;;;;;;30.60;17.13;;;;;;;3.68;87.41;100939.03;5045935;28;20680;-75
2022/03/08 03:18:52;;;;;;;29.00;15.87;;;;;;;3.70;87.89;100942.63;5042153;28;20629;-76
2022/03/08 03:21:17;;;;;;;30.17;17.00;;;;;;;3.70;87.61;100952.78;5036534;28;20279;-75
2022/03/08 03:23:43;;;;;;;27.27;16.17;;;;;;;3.72;87.69;100956.41;5037217;28;20179;-75
2022/03/08 03:26:08;;;;;;;32.43;17.50;;;;;;;3.75;88.47;100958.41;5034733;28;20648;-75
2022/03/08 03:28:34;;;;;;;32.13;17.60;;;;;;;3.70;88.24;100956.22;5034606;28;20179;-75
2022/03/08 03:30:59;;;;;;;29.33;16.40;;;;;;;3.74;88.13;100957.50;5034020;28;20204;-75
2022/03/08 03:33:25;;;;;;;29.07;16.93;;;;;;;3.78;87.11;100966.41;5032528;28;20262;-76
2022/03/08 03:35:50;;;;;;;30.10;15.97;;;;;;;3.70;85.48;100955.31;5033668;28;20241;-74
2022/03/08 03:38:16;;;;;;;30.13;16.60;;;;;;;3.68;85.18;100959.31;5033907;28;20234;-75
2022/03/08 03:40:41;;;;;;;29.33;16.63;;;;;;;3.69;85.68;100967.06;5033628;28;20235;-76
2022/03/08 03:43:07;;;;;;;28.50;16.67;;;;;;;3.63;85.26;100956.19;5033596;28;20228;-76
2022/03/08 03:45:32;;;;;;;31.00;16.40;;;;;;;3.56;85.25;100940.06;5033544;28;20183;-75
2022/03/08 03:47:58;;;;;;;29.53;15.60;;;;;;;3.66;85.61;100965.78;5033782;28;20184;-75
2022/03/08 03:50:23;;;;;;;29.20;15.87;;;;;;;3.69;86.20;100969.59;5033484;28;20681;-76
2022/03/08 03:52:49;;;;;;;29.33;16.13;;;;;;;3.65;85.83;100961.47;5033533;28;20179;-76
2022/03/08 03:55:14;;;;;;;27.03;14.97;;;;;;;3.73;85.49;100977.59;5033086;28;20172;-75
2022/03/08 03:57:40;;;;;;;29.73;16.10;;;;;;;3.65;86.30;100957.28;5032148;28;20174;-75
2022/03/08 04:00:08;;;;;;;32.47;15.87;;;;;;;3.67;85.96;100955.84;5032096;28;20245;-77
2022/03/08 04:02:33;;;;;;;30.07;15.43;;;;;;;3.78;86.18;100976.53;5033359;28;20226;-76
2022/03/08 04:04:59;;;;;;;27.67;15.50;;;;;;;3.80;86.78;100973.47;5033260;28;20638;-75
2022/03/08 04:07:25;;;;;;;30.97;17.03;;;;;;;3.77;87.27;100969.63;5031985;28;20591;-76
2022/03/08 04:09:50;;;;;;;32.27;17.53;;;;;;;3.78;86.82;100968.94;5033178;28;20214;-76
2022/03/08 04:12:16;;;;;;;41.97;21.93;;;;;;;3.75;87.12;100960.94;5033229;28;20245;-77
2022/03/08 04:14:42;;;;;;;32.70;16.20;;;;;;;3.82;86.50;100973.66;5031646;28;20204;-76
2022/03/08 04:17:07;;;;;;;29.30;15.40;;;;;;;3.85;85.77;100979.09;5033219;28;20704;-75
2022/03/08 04:19:33;;;;;;;32.37;16.90;;;;;;;3.80;86.45;100972.53;5032988;28;20633;-76
2022/03/08 04:21:59;;;;;;;30.73;15.87;;;;;;;3.82;86.69;100974.53;5032873;28;20701;-75
2022/03/08 04:24:25;;;;;;;33.13;18.03;;;;;;;3.54;86.57;100932.25;5032740;28;20262;-76
2022/03/08 04:26:51;;;;;;;70.23;35.53;;;;;;;3.76;86.16;100970.34;5032881;28;20191;-76
2022/03/08 04:29:17;;;;;;;71.70;34.33;;;;;;;3.80;85.68;100982.69;5032663;28;20176;-76
2022/03/08 04:31:42;;;;;;;33.80;18.13;;;;;;;3.83;86.09;100983.06;5032564;28;20192;-75
2022/03/08 04:34:08;;;;;;;34.47;19.13;;;;;;;3.89;85.54;100988.88;5032597;28;20226;-76
2022/03/08 04:36:33;;;;;;;42.93;23.13;;;;;;;3.85;85.87;100991.75;5031731;28;20570;-76
2022/03/08 04:38:59;;;;;;;29.53;17.90;;;;;;;3.80;85.25;100973.47;5031292;28;20660;-76
2022/03/08 04:41:25;;;;;;;40.83;22.83;;;;;;;3.85;85.15;100987.59;5032499;28;20274;-76
2022/03/08 04:43:50;;;;;;;33.73;20.10;;;;;;;3.82;85.31;100986.31;5032250;28;20756;-76
2022/03/08 04:46:16;;;;;;;37.77;20.13;;;;;;;3.83;84.96;100995.72;5032421;28;20172;-77
2022/03/08 04:48:41;;;;;;;42.27;24.07;;;;;;;3.75;84.93;100989.72;5032435;28;20199;-76
2022/03/08 04:51:07;;;;;;;37.20;22.10;;;;;;;3.74;84.23;100995.53;5032347;28;20601;-76
2022/03/08 04:53:32;;;;;;;38.47;23.73;;;;;;;3.44;84.26;100953.03;5032191;28;20172;-76
2022/03/08 04:55:58;;;;;;;33.63;21.07;;;;;;;3.71;83.59;100997.69;5032186;28;20549;-76
2022/03/08 04:58:23;;;;;;;42.67;23.10;;;;;;;3.69;83.34;100991.50;5032255;28;20206;-76
2022/03/08 05:00:49;;;;;;;86.80;45.00;;;;;;;3.62;83.36;100994.94;5032069;28;20195;-76
2022/03/08 05:03:15;;;;;;;52.63;27.77;;;;;;;3.51;83.64;100989.25;5032009;28;20176;-76
2022/03/08 05:05:40;;;;;;;36.83;22.73;;;;;;;3.57;82.58;100998.50;5030785;28;20191;-75
2022/03/08 05:08:06;;;;;;;38.10;24.13;;;;;;;3.59;82.97;100998.72;5032021;28;20176;-75
2022/03/08 05:10:32;;;;;;;37.10;22.27;;;;;;;3.61;83.08;101004.84;5032217;28;20180;-76
2022/03/08 05:13:00;;;;;;;34.80;21.93;;;;;;;3.53;81.39;100988.72;5031796;28;20336;-76
2022/03/08 05:15:25;;;;;;;38.07;21.60;;;;;;;3.58;81.46;100995.28;5032226;28;20179;-76
2022/03/08 05:17:51;;;;;;;41.90;22.93;;;;;;;3.62;81.79;101010.13;5032572;28;20180;-74
2022/03/08 05:20:16;;;;;;;39.73;23.67;;;;;;;3.64;80.78;101012.84;5031401;28;20199;-75
2022/03/08 05:22:42;;;;;;;42.87;23.13;;;;;;;3.68;80.89;101015.97;5031494;28;20650;-75
2022/03/08 05:25:08;;;;;;;39.40;23.43;;;;;;;3.73;80.70;101019.03;5031392;28;20176;-76
2022/03/08 05:27:34;;;;;;;38.90;24.20;;;;;;;3.68;81.17;101004.91;5031865;28;20176;-76
2022/03/08 05:29:59;;;;;;;47.07;26.50;;;;;;;3.67;79.46;101019.19;5031891;28;20647;-74
2022/03/08 05:32:24;;;;;;;44.90;26.67;;;;;;;3.62;79.19;101004.16;5031425;28;20180;-75
2022/03/08 05:34:50;;;;;;;42.70;25.87;;;;;;;3.69;79.78;101021.94;5031664;28;20179;-76
2022/03/08 05:37:15;;;;;;;45.90;26.43;;;;;;;3.67;79.70;101024.25;5031443;28;20177;-77
2022/03/08 05:39:41;;;;;;;45.50;27.20;;;;;;;3.74;80.34;101023.41;5031453;28;20730;-75
2022/03/08 05:42:07;;;;;;;45.93;26.33;;;;;;;3.80;80.63;101025.78;5031271;28;20178;-75
2022/03/08 05:44:32;;;;;;;42.40;25.10;;;;;;;3.78;82.00;101014.56;5030961;28;20235;-75
2022/03/08 05:46:58;;;;;;;45.30;27.17;;;;;;;3.87;79.61;101019.13;5031289;28;20662;-77
2022/03/08 05:49:23;;;;;;;47.30;25.87;;;;;;;3.90;80.34;101028.72;5031347;28;20263;-77
2022/03/08 05:51:49;;;;;;;43.07;24.97;;;;;;;3.97;81.26;101035.47;5031310;28;20168;-76
2022/03/08 05:54:15;;;;;;;46.80;26.90;;;;;;;4.01;81.09;101037.63;5031222;28;20698;-75
2022/03/08 05:56:40;;;;;;;48.23;27.43;;;;;;;4.01;79.74;101025.88;5031257;28;20179;-76
2022/03/08 05:59:06;;;;;;;49.43;27.87;;;;;;;4.12;78.63;101039.88;5031186;28;20171;-75
2022/03/08 06:01:31;;;;;;;49.30;27.43;;;;;;;4.15;79.55;101043.69;5031072;28;20207;-76
2022/03/08 06:03:57;;;;;;;43.00;25.13;;;;;;;4.24;79.34;101043.00;5031171;28;20195;-75
2022/03/08 06:06:22;;;;;;;51.43;28.03;;;;;;;4.31;77.14;101040.47;5030966;28;20644;-76
2022/03/08 06:08:49;;;;;;;51.27;28.13;;;;;;;4.33;78.12;101054.22;5031021;28;20176;-75
2022/03/08 06:11:15;;;;;;;48.17;26.57;;;;;;;4.07;78.77;101002.88;5030888;28;20174;-75
2022/03/08 06:13:41;;;;;;;49.80;28.13;;;;;;;4.20;76.96;101026.47;5030887;28;20180;-76
2022/03/08 06:16:06;;;;;;;49.77;26.70;;;;;;;4.43;78.43;101051.22;5031015;28;20227;-76
2022/03/08 06:18:32;;;;;;;47.40;27.00;;;;;;;4.44;76.15;101043.75;5030957;28;20168;-76
2022/03/08 06:20:57;;;;;;;47.33;27.80;;;;;;;4.51;75.30;101053.91;5030828;28;20199;-74
2022/03/08 06:23:23;;;;;;;52.67;29.23;;;;;;;4.37;73.82;101062.41;5030962;28;20226;-76
2022/03/08 06:25:48;;;;;;;51.53;27.80;;;;;;;4.29;73.56;101077.41;5030875;28;20183;-74
2022/03/08 06:28:14;;;;;;;48.53;27.73;;;;;;;3.85;74.92;101018.00;5031024;28;20175;-76
2022/03/08 06:30:39;;;;;;;50.27;27.30;;;;;;;4.01;74.99;101065.53;5030603;28;20267;-76
2022/03/08 06:33:05;;;;;;;56.73;29.80;;;;;;;3.89;75.80;101064.94;5030617;28;20690;-76
2022/03/08 06:35:31;;;;;;;52.03;27.57;;;;;;;3.80;76.98;101068.84;5030791;28;20160;-75
2022/03/08 06:37:57;;;;;;;56.90;28.40;;;;;;;3.69;77.50;101070.06;5030958;28;20168;-75
2022/03/08 06:40:23;;;;;;;51.30;29.00;;;;;;;3.62;78.37;101070.03;5030812;28;20218;-76
2022/03/08 06:42:51;;;;;;;53.50;29.87;;;;;;;3.50;79.02;101053.31;5030768;28;20216;-76
2022/03/08 06:45:17;;;;;;;55.77;29.33;;;;;;;3.46;78.84;101064.69;5030830;28;20172;-76
2022/03/08 06:47:42;;;;;;;49.17;27.20;;;;;;;3.42;79.04;101057.41;5031036;28;20176;-76
2022/03/08 06:50:08;;;;;;;53.83;28.80;;;;;;;3.39;79.48;101068.06;5031081;28;20267;-76
2022/03/08 06:52:33;;;;;;;56.43;28.83;;;;;;;3.39;80.29;101070.59;5030940;28;20185;-76
2022/03/08 06:54:59;;;;;;;53.40;28.67;;;;;;;3.41;80.59;101076.78;5029565;28;20188;-76
2022/03/08 06:57:25;;;;;;;50.60;27.80;;;;;;;3.17;81.29;101044.19;5031003;28;20183;-77
2022/03/08 06:59:51;;;;;;;55.00;30.20;;;;;;;3.31;80.84;101065.31;5031474;28;20203;-75
2022/03/08 07:02:16;;;;;;;53.97;27.67;;;;;;;3.33;82.14;101067.28;5034702;28;20172;-75
2022/03/08 07:04:42;;;;;;;50.90;28.17;;;;;;;3.36;81.82;101082.88;5034194;28;20175;-75
2022/03/08 07:07:08;;;;;;;48.60;27.07;;;;;;;3.37;81.56;101079.66;5034403;28;20202;-75
2022/03/08 07:09:33;;;;;;;51.53;26.17;;;;;;;3.32;81.35;101068.00;5034299;28;20666;-75
2022/03/08 07:11:59;;;;;;;46.73;25.80;;;;;;;3.37;81.83;101078.75;5034078;28;20172;-75
2022/03/08 07:14:25;;;;;;;49.27;26.63;;;;;;;3.32;81.07;101067.13;5034110;28;20200;-74
2022/03/08 07:16:51;;;;;;;53.60;28.43;;;;;;;3.31;81.92;101057.72;5034121;28;20678;-76
2022/03/08 07:19:16;;;;;;;52.73;28.30;;;;;;;3.42;81.50;101070.97;5034011;28;20587;-74
2022/03/08 07:21:42;;;;;;;47.57;26.50;;;;;;;3.46;81.11;101072.28;5033939;28;20217;-75
2022/03/08 07:24:08;;;;;;;54.87;27.57;;;;;;;3.45;82.73;101073.00;5033938;28;20552;-75
2022/03/08 07:26:34;;;;;;;55.10;28.87;;;;;;;3.45;82.96;101071.34;5033930;28;20179;-74
2022/03/08 07:29:00;;;;;;;51.63;27.40;;;;;;;3.39;82.48;101063.00;5033713;28;20259;-77
2022/03/08 07:31:25;;;;;;;54.03;27.67;;;;;;;3.48;81.21;101081.88;5033553;28;20192;-77
2022/03/08 07:33:51;;;;;;;56.90;28.73;;;;;;;3.51;81.94;101077.91;5033875;28;20179;-74
2022/03/08 07:36:17;;;;;;;52.57;27.77;;;;;;;3.56;81.65;101082.84;5033667;28;20266;-75
2022/03/08 07:38:43;;;;;;;52.17;26.17;;;;;;;3.58;82.17;101081.44;5034084;28;20176;-76
2022/03/08 07:41:08;;;;;;;50.53;27.03;;;;;;;3.57;81.73;101086.28;5033371;28;20203;-74
2022/03/08 07:43:34;;;;;;;56.17;27.97;;;;;;;3.59;82.13;101090.84;5033346;28;20307;-75
2022/03/08 07:46:01;;;;;;;60.83;29.60;;;;;;;3.50;82.27;101068.50;5033505;28;20178;-76
2022/03/08 07:48:27;;;;;;;55.20;28.77;;;;;;;3.65;82.29;101086.53;5033571;28;20200;-75
2022/03/08 07:50:52;;;;;;;50.27;27.40;;;;;;;3.68;82.47;101075.88;5033439;28;20649;-75
2022/03/08 07:53:18;;;;;;;56.70;29.30;;;;;;;3.65;81.53;101058.66;5033457;28;20176;-75
2022/03/08 07:55:43;;;;;;;60.77;30.97;;;;;;;3.78;81.61;101086.44;5033326;28;20551;-76
2022/03/08 07:58:12;;;;;;;56.40;28.93;;;;;;;3.77;80.83;101083.69;5033466;28;20172;-75
2022/03/08 08:00:40;;;;;;;54.10;27.87;;;;;;;3.61;80.05;101045.41;5033361;28;20214;-74
2022/03/08 08:03:06;;;;;;;57.50;29.50;;;;;;;3.81;80.21;101079.19;5033634;28;20179;-76
2022/03/08 08:05:34;;;;;;;54.50;28.47;;;;;;;3.88;80.21;101080.88;5033289;28;20178;-75
2022/03/08 08:08:00;;;;;;;52.50;27.90;;;;;;;3.90;80.23;101069.31;5033734;28;20180;-76
2022/03/08 08:10:25;;;;;;;51.77;27.80;;;;;;;3.86;79.21;101062.94;5033704;28;20172;-74
2022/03/08 08:12:51;;;;;;;50.70;27.77;;;;;;;3.90;79.34;101085.41;5033925;28;20717;-74
2022/03/08 08:15:17;;;;;;;44.83;25.90;;;;;;;3.90;78.16;101064.22;5033029;28;20631;-75
2022/03/08 08:17:42;;;;;;;50.37;26.43;;;;;;;3.90;78.68;101065.13;5033368;28;20636;-75
2022/03/08 08:20:08;;;;;;;49.37;27.10;;;;;;;3.94;78.35;101057.16;5032798;28;20589;-75
2022/03/08 08:22:34;;;;;;;54.80;29.10;;;;;;;3.80;78.33;101035.91;5032813;28;20386;-76
2022/03/08 08:24:59;;;;;;;49.73;26.27;;;;;;;3.97;79.17;101061.72;5033016;28;20650;-75
2022/03/08 08:27:25;;;;;;;47.97;27.90;;;;;;;3.97;78.61;101058.28;5032611;28;20682;-76
2022/03/08 08:29:51;;;;;;;47.90;27.80;;;;;;;3.96;78.35;101058.97;5032738;28;20195;-75
2022/03/08 08:32:16;;;;;;;54.23;27.57;;;;;;;4.03;79.20;101066.63;5032567;28;20176;-76
2022/03/08 08:34:42;;;;;;;48.27;27.00;;;;;;;4.05;78.12;101061.03;5032726;28;20179;-74
2022/03/08 08:37:09;;;;;;;50.63;27.97;;;;;;;4.05;78.36;101062.66;5032573;28;20173;-74
2022/03/08 08:39:34;;;;;;;51.10;28.37;;;;;;;4.07;78.37;101067.19;5032440;28;20179;-76
2022/03/08 08:42:00;;;;;;;47.80;26.57;;;;;;;3.92;78.24;101032.34;5032451;28;20172;-76
2022/03/08 08:44:26;;;;;;;52.93;28.37;;;;;;;4.09;78.19;101062.31;5032196;28;20220;-74
2022/03/08 08:46:53;;;;;;;49.67;27.27;;;;;;;4.10;77.72;101053.97;5034682;28;20218;-73
2022/03/08 08:49:18;;;;;;;51.10;27.53;;;;;;;4.12;77.81;101062.69;5034555;28;20194;-75
2022/03/08 08:51:44;;;;;;;52.23;29.40;;;;;;;4.13;78.06;101061.97;5032492;28;20226;-78
2022/03/08 08:54:09;;;;;;;48.90;27.10;;;;;;;4.14;77.13;101056.16;5032574;28;20180;-74
2022/03/08 08:56:35;;;;;;;53.60;27.83;;;;;;;4.16;77.27;101057.25;5032147;28;20172;-74
2022/03/08 08:59:04;;;;;;;51.37;28.23;;;;;;;4.20;76.79;101071.22;5035356;28;20176;-74
2022/03/08 09:01:30;;;;;;;53.40;29.63;;;;;;;4.12;77.23;101050.00;5032235;28;20199;-75
2022/03/08 09:03:56;;;;;;;51.90;28.53;;;;;;;4.24;77.05;101061.66;5032382;28;20187;-74
2022/03/08 09:06:21;;;;;;;47.40;26.93;;;;;;;4.24;76.69;101061.66;5032288;28;20659;-73
2022/03/08 09:08:47;;;;;;;46.63;26.83;;;;;;;4.25;75.98;101060.03;5031997;28;20199;-75
2022/03/08 09:11:12;;;;;;;49.83;27.60;;;;;;;4.25;76.78;101066.00;5032512;28;20183;-76
2022/03/08 09:13:38;;;;;;;46.23;26.23;;;;;;;4.25;75.17;101057.50;5032418;28;20202;-74
2022/03/08 09:16:05;;;;;;;51.40;27.93;;;;;;;4.19;76.05;101046.59;5031950;28;20187;-76
2022/03/08 09:18:31;;;;;;;44.67;26.87;;;;;;;4.30;75.08;101069.09;5032091;28;20175;-75
2022/03/08 09:20:56;;;;;;;49.40;26.40;;;;;;;4.33;75.66;101067.84;5031598;28;20200;-77
2022/03/08 09:23:22;;;;;;;46.63;27.00;;;;;;;4.28;75.66;101058.75;5031611;28;20211;-76
2022/03/08 09:25:48;;;;;;;44.43;25.77;;;;;;;4.35;74.14;101068.03;5031587;28;20254;-76
2022/03/08 09:28:13;;;;;;;44.83;25.93;;;;;;;4.40;74.34;101069.50;5033783;28;20179;-77
2022/03/08 09:30:39;;;;;;;44.53;25.80;;;;;;;4.39;74.19;101067.66;5033847;28;20289;-75
2022/03/08 09:33:05;;;;;;;47.43;25.60;;;;;;;4.30;74.50;101041.19;5032257;28;20172;-75
2022/03/08 09:35:31;;;;;;;45.97;26.40;;;;;;;4.44;75.58;101073.31;5032168;28;20180;-75
2022/03/08 09:37:57;;;;;;;45.93;26.07;;;;;;;4.44;74.59;101066.59;5031747;28;20176;-76
2022/03/08 09:40:23;;;;;;;45.90;25.97;;;;;;;4.43;74.21;101058.81;5031844;28;20245;-76
2022/03/08 09:42:50;;;;;;;50.53;26.97;;;;;;;4.48;75.17;101057.72;5031248;28;20215;-75
2022/03/08 09:45:17;;;;;;;52.00;30.40;;;;;;;4.50;74.02;101071.50;5030222;28;20636;-76
2022/03/08 09:47:43;;;;;;;48.60;27.03;;;;;;;4.55;73.98;101067.91;5031362;28;20168;-77
2022/03/08 09:50:11;;;;;;;48.30;27.07;;;;;;;4.53;74.29;101062.63;5031288;28;20278;-76
2022/03/08 09:52:38;;;;;;;52.53;27.67;;;;;;;4.56;74.70;101067.19;5031529;28;20171;-76
2022/03/08 09:55:06;;;;;;;47.70;27.33;;;;;;;4.62;74.94;101073.91;5030019;28;20172;-78
2022/03/08 09:57:32;;;;;;;41.80;25.60;;;;;;;4.51;73.95;101047.94;5031479;28;20215;-75
2022/03/08 09:59:58;;;;;;;45.10;26.57;;;;;;;4.61;74.22;101071.16;5031331;28;20621;-77
2022/03/08 10:02:23;;;;;;;41.47;25.00;;;;;;;4.60;74.06;101066.81;5031183;28;20176;-75
2022/03/08 10:05:05;;;;;;;38.20;23.30;;;;;;;4.61;73.97;101072.09;5031228;28;20386;-77
2022/03/08 10:07:31;;;;;;;42.50;24.03;;;;;;;4.52;73.64;101049.78;5029991;28;20635;-77
2022/03/08 10:09:58;;;;;;;39.63;24.20;;;;;;;4.63;74.27;101068.09;5031551;28;20198;-78
2022/03/08 10:12:25;;;;;;;39.23;24.13;;;;;;;4.58;74.72;101059.03;5031200;28;20187;-76
2022/03/08 10:14:51;;;;;;;40.60;24.50;;;;;;;4.61;74.36;101067.03;5030991;28;20179;-75
2022/03/08 10:17:35;;;;;;;44.77;25.40;;;;;;;4.69;74.38;101073.00;5031501;28;20176;-78
2022/03/08 10:20:01;;;;;;;45.33;25.30;;;;;;;4.70;74.60;101064.66;5031536;28;20246;-78
2022/03/08 10:22:37;;;;;;;42.20;24.27;;;;;;;4.74;74.16;101065.97;5030925;28;20178;-75
2022/03/08 10:25:30;;;;;;;42.00;24.77;;;;;;;4.78;73.50;101069.03;5031041;28;20174;-75
2022/03/08 10:27:55;;;;;;;41.87;24.43;;;;;;;4.78;73.81;101076.66;5027187;28;20294;-75
2022/03/08 10:30:22;;;;;;;39.73;23.03;;;;;;;4.81;74.16;101073.56;5030690;28;20287;-76
2022/03/08 10:32:48;;;;;;;43.60;24.07;;;;;;;4.78;73.63;101066.50;5030841;28;20230;-77
2022/03/08 10:35:28;;;;;;;42.83;25.30;;;;;;;4.88;73.97;101072.66;5032013;28;20624;-76
2022/03/08 10:37:57;;;;;;;43.30;23.53;;;;;;;4.95;73.39;101078.66;5034102;28;20562;-76
2022/03/08 10:40:30;;;;;;;34.33;21.67;;;;;;;4.89;72.71;101061.78;5034710;28;20632;-74
2022/03/08 10:43:07;;;;;;;36.00;20.97;;;;;;;4.95;71.94;101065.94;5034611;28;20302;-78
2022/03/08 10:45:34;;;;;;;33.43;19.77;;;;;;;5.01;72.46;101074.31;5035058;28;20659;-76
2022/03/08 10:48:04;;;;;;;35.90;21.53;;;;;;;5.01;71.78;101073.41;5034649;28;20168;-76
2022/03/08 10:50:31;;;;;;;36.47;22.03;;;;;;;5.00;72.52;101081.75;5034573;28;20168;-77
2022/03/08 10:52:59;;;;;;;38.67;23.33;;;;;;;4.85;72.38;101040.19;5034913;28;20644;-78
2022/03/08 10:55:33;;;;;;;36.73;21.50;;;;;;;5.04;72.27;101072.13;5035352;28;20176;-76
2022/03/08 10:58:08;;;;;;;35.40;22.07;;;;;;;4.45;72.65;100981.22;5035318;28;20259;-76
2022/03/08 11:00:51;;;;;;;39.73;23.30;;;;;;;5.09;71.46;101072.69;5034734;28;20628;-75
2022/03/08 11:03:22;;;;;;;32.97;21.23;;;;;;;5.09;71.42;101073.59;5034537;28;20195;-77
2022/03/08 11:05:53;;;;;;;37.67;22.93;;;;;;;4.98;71.56;101051.09;5034640;28;20230;-74
2022/03/08 11:08:19;;;;;;;34.43;21.43;;;;;;;5.10;70.98;101077.03;5034388;28;20164;-75
2022/03/08 11:10:45;;;;;;;37.40;21.70;;;;;;;5.14;71.38;101069.06;5034149;28;20234;-76
2022/03/08 11:13:13;;;;;;;44.50;22.63;;;;;;;5.03;70.72;101050.00;5034092;28;20203;-76
2022/03/08 11:15:40;;;;;;;42.97;22.63;;;;;;;5.15;71.21;101055.63;5034411;28;20206;-78